Time;durP1;ratioP1;P1;durP2;ratioP2;P2;SDS_P1;SDS_P2;PMS_P1;PMS_P2;Temp;Humidity;BMP_temperature;BMP_pressure;BME280_temperature;BME280_humidity;BME280_pressure;Samples;Min_cycle;Max_cycle;Signal;HPM_P1;HPM_P2
2023/03/31 00:01:27;;;;;;;0.60;0.60;;;9.50;99.90;;;;;;5114087;28;20569;-84
2023/03/31 00:04:00;;;;;;;0.30;0.30;;;9.60;99.90;;;;;;5085596;28;20050;-85
2023/03/31 00:06:27;;;;;;;0.40;0.40;;;9.60;99.90;;;;;;5091395;28;20054;-86
2023/03/31 00:08:53;;;;;;;0.43;0.43;;;9.60;99.90;;;;;;5047924;28;20464;-85
2023/03/31 00:11:22;;;;;;;;;;;9.60;99.90;;;;;;5079626;28;20032;-85
2023/03/31 00:13:47;;;;;;;0.70;0.70;;;9.60;99.90;;;;;;5055411;28;19923;-85
2023/03/31 00:16:13;;;;;;;0.60;0.60;;;9.60;99.90;;;;;;5061755;28;20124;-84
2023/03/31 00:18:46;;;;;;;2.58;2.35;;;9.70;99.90;;;;;;5076964;28;20051;-84
2023/03/31 00:21:13;;;;;;;12.35;2.05;;;9.70;99.90;;;;;;5032986;28;20434;-84
2023/03/31 00:23:40;;;;;;;0.70;0.70;;;9.70;99.90;;;;;;5069087;28;20130;-85
2023/03/31 00:26:06;;;;;;;0.35;0.35;;;9.70;99.90;;;;;;5068838;28;20039;-84
2023/03/31 00:28:31;;;;;;;0.60;0.60;;;9.70;99.90;;;;;;5063985;28;20090;-84
2023/03/31 00:31:02;;;;;;;1.52;1.40;;;9.70;99.90;;;;;;5048691;28;20040;-83
2023/03/31 00:33:28;;;;;;;0.82;0.82;;;9.70;99.90;;;;;;5068456;28;20141;-85
2023/03/31 00:35:55;;;;;;;1.05;1.05;;;9.60;99.90;;;;;;5075535;28;20486;-84
2023/03/31 00:38:20;;;;;;;0.20;0.20;;;9.50;99.90;;;;;;5072409;28;20052;-84
2023/03/31 00:40:47;;;;;;;0.38;0.38;;;9.50;99.90;;;;;;5067984;28;20122;-84
2023/03/31 00:43:33;;;;;;;0.35;0.35;;;9.50;99.90;;;;;;5059235;28;20492;-84
2023/03/31 00:46:23;;;;;;;0.38;0.38;;;9.40;99.90;;;;;;5073745;28;20070;-84
2023/03/31 00:48:58;;;;;;;0.40;0.40;;;9.30;99.90;;;;;;5061551;28;20087;-84
2023/03/31 00:51:29;;;;;;;0.60;0.60;;;9.30;99.90;;;;;;5068602;28;20365;-84
2023/03/31 00:53:59;;;;;;;0.30;0.30;;;9.20;99.90;;;;;;5075837;28;20397;-85
2023/03/31 00:56:29;;;;;;;1.13;1.10;;;9.20;99.90;;;;;;5060387;28;20047;-85
2023/03/31 00:59:00;;;;;;;0.38;0.38;;;9.20;99.90;;;;;;5074656;28;20048;-85
2023/03/31 01:01:25;;;;;;;0.50;0.50;;;9.20;99.90;;;;;;5076830;28;20075;-85
2023/03/31 01:03:52;;;;;;;0.38;0.38;;;9.10;99.90;;;;;;5069029;28;20527;-84
2023/03/31 01:06:18;;;;;;;0.40;0.40;;;9.10;99.90;;;;;;5070862;28;20131;-84
2023/03/31 01:08:48;;;;;;;0.45;0.45;;;9.10;99.90;;;;;;5082531;28;20051;-83
2023/03/31 01:11:17;;;;;;;0.43;0.43;;;9.10;99.90;;;;;;5092595;28;20035;-84
2023/03/31 01:13:44;;;;;;;0.55;0.55;;;9.10;99.90;;;;;;5085173;28;20044;-85
2023/03/31 01:16:11;;;;;;;0.40;0.40;;;9.10;99.90;;;;;;5062982;28;20358;-84
2023/03/31 01:18:38;;;;;;;0.50;0.50;;;9.00;99.90;;;;;;5101223;28;20126;-85
2023/03/31 01:21:24;;;;;;;0.40;0.40;;;9.00;99.90;;;;;;5051051;28;20534;-84
2023/03/31 01:24:08;;;;;;;0.40;0.40;;;9.00;99.90;;;;;;5105001;28;20044;-85
2023/03/31 01:26:48;;;;;;;0.47;0.47;;;9.00;99.90;;;;;;5086452;28;20062;-84
2023/03/31 01:29:49;;;;;;;0.52;0.52;;;8.90;99.90;;;;;;5088612;28;20055;-84
2023/03/31 01:32:27;;;;;;;0.32;0.32;;;8.90;99.90;;;;;;5085518;28;20040;-84
2023/03/31 01:35:02;;;;;;;0.40;0.40;;;8.90;99.90;;;;;;5087790;28;20445;-84
2023/03/31 01:37:55;;;;;;;1.05;1.05;;;8.90;99.90;;;;;;5087386;28;20442;-84
2023/03/31 01:40:34;;;;;;;0.80;0.80;;;8.90;99.90;;;;;;5086537;28;20062;-85
2023/03/31 01:43:10;;;;;;;0.30;0.30;;;8.90;99.90;;;;;;5071425;28;20070;-82
2023/03/31 01:46:07;;;;;;;0.30;0.30;;;8.90;99.90;;;;;;5096992;28;20094;-84
2023/03/31 01:48:51;;;;;;;0.57;0.57;;;8.90;99.90;;;;;;5089335;28;20401;-84
2023/03/31 01:51:40;;;;;;;0.35;0.35;;;8.90;99.90;;;;;;5085944;28;20625;-83
2023/03/31 01:54:26;;;;;;;0.40;0.40;;;8.80;99.90;;;;;;5060665;27;20127;-84
2023/03/31 01:56:58;;;;;;;0.50;0.50;;;8.80;99.90;;;;;;5070099;28;20039;-84
2023/03/31 01:59:42;;;;;;;0.40;0.40;;;8.90;99.90;;;;;;5090710;28;20056;-84
2023/03/31 02:02:25;;;;;;;0.60;0.60;;;8.90;99.90;;;;;;5089292;28;20134;-83
2023/03/31 02:04:57;;;;;;;0.43;0.43;;;8.90;99.90;;;;;;5085726;28;20040;-84
2023/03/31 02:07:31;;;;;;;0.40;0.40;;;8.80;99.90;;;;;;5091825;28;20156;-84
2023/03/31 02:10:00;;;;;;;0.20;0.20;;;8.90;99.90;;;;;;5086375;28;20052;-84
2023/03/31 02:12:29;;;;;;;0.40;0.40;;;8.90;99.90;;;;;;5084646;28;20032;-84
2023/03/31 02:14:58;;;;;;;0.40;0.40;;;8.80;99.90;;;;;;5089209;28;20039;-84
2023/03/31 02:17:29;;;;;;;5.18;2.38;;;8.90;99.90;;;;;;5086284;28;20118;-85
2023/03/31 02:20:00;;;;;;;0.50;0.50;;;8.90;99.90;;;;;;5092192;28;20044;-84
2023/03/31 02:22:30;;;;;;;0.30;0.30;;;8.90;99.90;;;;;;5087894;28;20496;-84
2023/03/31 02:25:00;;;;;;;0.40;0.40;;;8.90;99.90;;;;;;5085352;28;20048;-85
2023/03/31 02:27:36;;;;;;;0.50;0.50;;;8.80;99.90;;;;;;5089211;28;20044;-85
2023/03/31 02:30:03;;;;;;;0.73;0.73;;;8.80;99.90;;;;;;5065861;28;20048;-85
2023/03/31 02:32:34;;;;;;;0.40;0.40;;;8.80;99.90;;;;;;5100914;28;20043;-85
2023/03/31 02:35:00;;;;;;;3.70;2.90;;;8.80;99.90;;;;;;5100145;28;20058;-83
2023/03/31 02:37:27;;;;;;;;;;;8.80;99.90;;;;;;5088387;28;20621;-85
2023/03/31 02:39:56;;;;;;;0.95;0.95;;;8.90;99.90;;;;;;5071372;28;20006;-84
2023/03/31 02:42:21;;;;;;;0.40;0.40;;;8.90;99.90;;;;;;5088983;28;20135;-85
2023/03/31 02:44:48;;;;;;;0.40;0.40;;;8.90;99.90;;;;;;5069793;28;20130;-84
2023/03/31 02:47:16;;;;;;;0.50;0.50;;;9.00;99.90;;;;;;5073315;28;20059;-84
2023/03/31 02:49:47;;;;;;;0.50;0.50;;;9.00;99.90;;;;;;5069259;28;20202;-85
2023/03/31 02:52:31;;;;;;;0.50;0.50;;;9.00;99.90;;;;;;5085637;28;20036;-85
2023/03/31 02:55:26;;;;;;;0.50;0.50;;;9.00;99.90;;;;;;5093045;28;20028;-85
2023/03/31 02:57:55;;;;;;;0.35;0.35;;;9.10;99.90;;;;;;5093788;28;20090;-85
2023/03/31 03:00:30;;;;;;;0.68;0.68;;;9.20;99.90;;;;;;5081708;28;20143;-85
2023/03/31 03:03:21;;;;;;;0.40;0.40;;;9.20;99.90;;;;;;5081939;28;20059;-86
2023/03/31 03:06:01;;;;;;;0.57;0.57;;;9.20;99.90;;;;;;5085680;28;20051;-84
2023/03/31 03:09:10;;;;;;;0.40;0.40;;;9.20;99.90;;;;;;5063726;28;20059;-84
2023/03/31 03:11:57;;;;;;;0.60;0.60;;;9.30;99.90;;;;;;5067230;28;20101;-84
2023/03/31 03:14:53;;;;;;;0.40;0.40;;;9.20;99.90;;;;;;5076582;28;20082;-83
2023/03/31 03:17:33;;;;;;;1.67;1.58;;;9.20;99.90;;;;;;5062711;28;20127;-84
2023/03/31 03:20:00;;;;;;;0.40;0.40;;;9.20;99.90;;;;;;5068189;28;20079;-84
2023/03/31 03:22:26;;;;;;;0.50;0.50;;;9.10;99.90;;;;;;5064212;28;20420;-84
2023/03/31 03:24:52;;;;;;;0.50;0.50;;;9.10;99.90;;;;;;5075557;28;20052;-84
2023/03/31 03:27:21;;;;;;;0.40;0.40;;;9.00;99.90;;;;;;5063694;28;20132;-84
2023/03/31 03:29:47;;;;;;;0.40;0.40;;;9.00;99.90;;;;;;5065390;28;20082;-84
2023/03/31 03:32:13;;;;;;;0.50;0.50;;;9.00;99.90;;;;;;5071029;28;20435;-85
2023/03/31 03:34:38;;;;;;;;;;;9.00;99.90;;;;;;5067972;28;20054;-86
2023/03/31 03:37:04;;;;;;;0.38;0.38;;;9.00;99.90;;;;;;5091127;28;19924;-85
2023/03/31 03:39:30;;;;;;;0.43;0.43;;;9.00;99.90;;;;;;5074760;28;20036;-86
2023/03/31 03:41:56;;;;;;;;;;;9.00;99.90;;;;;;5073769;28;20127;-85
2023/03/31 03:44:22;;;;;;;0.40;0.40;;;9.00;99.90;;;;;;5071332;28;20012;-85
2023/03/31 03:46:48;;;;;;;1.10;1.10;;;9.00;99.90;;;;;;5077957;28;20028;-85
2023/03/31 03:49:13;;;;;;;0.43;0.43;;;9.00;99.90;;;;;;5045447;28;20034;-84
2023/03/31 03:51:39;;;;;;;1.75;0.50;;;9.00;99.90;;;;;;5053963;28;20101;-84
2023/03/31 03:54:05;;;;;;;0.57;0.57;;;9.10;99.90;;;;;;5059173;28;20047;-84
2023/03/31 03:56:31;;;;;;;0.30;0.30;;;9.00;99.90;;;;;;5045563;28;20041;-84
2023/03/31 03:58:56;;;;;;;0.40;0.40;;;9.00;99.90;;;;;;5069453;28;20056;-84
2023/03/31 04:01:22;;;;;;;0.30;0.30;;;9.10;99.90;;;;;;5074439;28;20093;-84
2023/03/31 04:03:48;;;;;;;0.47;0.47;;;9.10;99.90;;;;;;5076863;28;20177;-84
2023/03/31 04:06:14;;;;;;;0.77;0.73;;;9.10;99.90;;;;;;5071226;28;20045;-84
2023/03/31 04:08:39;;;;;;;0.30;0.30;;;9.10;99.90;;;;;;5080855;28;20060;-84
2023/03/31 04:11:15;;;;;;;0.40;0.40;;;9.20;99.90;;;;;;5023121;28;20139;-84
2023/03/31 04:13:42;;;;;;;0.40;0.40;;;9.20;99.90;;;;;;5058813;28;20046;-83
2023/03/31 04:16:08;;;;;;;0.50;0.50;;;9.20;99.90;;;;;;5092919;28;20094;-86
2023/03/31 04:18:36;;;;;;;0.50;0.50;;;9.20;99.90;;;;;;5068114;28;20044;-84
2023/03/31 04:21:05;;;;;;;3.70;1.05;;;9.30;99.90;;;;;;5074517;28;20050;-84
2023/03/31 04:23:31;;;;;;;1.20;1.20;;;9.30;99.90;;;;;;5060775;28;20083;-84
2023/03/31 04:25:57;;;;;;;;;;;9.40;99.90;;;;;;5069779;28;20036;-84
2023/03/31 04:28:25;;;;;;;0.88;0.88;;;9.40;99.90;;;;;;5069583;28;20336;-85
2023/03/31 04:30:57;;;;;;;0.40;0.40;;;9.40;99.90;;;;;;5058050;28;20497;-85
2023/03/31 04:33:23;;;;;;;0.40;0.40;;;9.40;99.90;;;;;;5066568;28;20104;-86
2023/03/31 04:35:49;;;;;;;0.40;0.40;;;9.40;99.90;;;;;;5069424;28;20040;-86
2023/03/31 04:38:19;;;;;;;0.40;0.40;;;9.40;99.90;;;;;;5056509;28;20090;-84
2023/03/31 04:40:50;;;;;;;0.30;0.30;;;9.40;99.90;;;;;;5070736;28;20067;-85
2023/03/31 04:43:18;;;;;;;0.40;0.40;;;9.40;99.90;;;;;;5054038;28;20064;-85
2023/03/31 04:45:44;;;;;;;0.32;0.32;;;9.40;99.90;;;;;;5070812;28;20048;-83
2023/03/31 04:48:10;;;;;;;0.85;0.85;;;9.40;99.90;;;;;;5068268;28;20063;-83
2023/03/31 04:50:36;;;;;;;0.50;0.50;;;9.40;99.90;;;;;;5071668;28;20042;-83
2023/03/31 04:53:02;;;;;;;0.43;0.43;;;9.40;99.90;;;;;;5066900;28;20048;-85
2023/03/31 04:55:28;;;;;;;0.30;0.30;;;9.30;99.90;;;;;;5076931;28;20053;-85
2023/03/31 04:57:54;;;;;;;0.40;0.40;;;9.40;99.90;;;;;;5068480;28;20036;-83
2023/03/31 05:00:20;;;;;;;0.40;0.40;;;9.40;99.90;;;;;;5071092;28;20044;-84
2023/03/31 05:02:46;;;;;;;0.60;0.60;;;9.40;99.90;;;;;;5067886;28;20140;-83
2023/03/31 05:05:12;;;;;;;0.32;0.32;;;9.30;99.90;;;;;;5056843;28;20122;-85
2023/03/31 05:07:38;;;;;;;0.55;0.55;;;9.30;99.90;;;;;;5080704;28;20092;-83
2023/03/31 05:10:05;;;;;;;0.35;0.35;;;9.40;99.90;;;;;;5095218;28;20066;-83
2023/03/31 05:12:35;;;;;;;0.50;0.50;;;9.30;99.90;;;;;;5078429;28;20135;-83
2023/03/31 05:15:01;;;;;;;5.47;3.70;;;9.30;99.90;;;;;;5087930;28;20720;-83
2023/03/31 05:17:26;;;;;;;0.98;0.98;;;9.30;99.90;;;;;;5075402;28;20055;-83
2023/03/31 05:19:52;;;;;;;0.82;0.82;;;9.30;99.90;;;;;;5088290;28;20065;-84
2023/03/31 05:22:20;;;;;;;0.50;0.50;;;9.30;99.90;;;;;;5094129;28;20091;-85
2023/03/31 05:24:46;;;;;;;0.73;0.73;;;9.30;99.90;;;;;;5077192;28;20139;-84
2023/03/31 05:27:12;;;;;;;0.73;0.73;;;9.30;99.90;;;;;;5090081;28;20044;-85
2023/03/31 05:29:38;;;;;;;0.75;0.75;;;9.30;99.90;;;;;;5053946;28;20688;-85
2023/03/31 05:32:03;;;;;;;0.65;0.65;;;9.30;99.90;;;;;;5093704;28;20043;-83
2023/03/31 05:34:29;;;;;;;0.40;0.40;;;9.30;99.90;;;;;;5088069;28;20036;-84
2023/03/31 05:36:55;;;;;;;0.50;0.50;;;9.30;99.90;;;;;;5084814;28;20036;-84
2023/03/31 05:39:21;;;;;;;0.40;0.40;;;9.30;99.90;;;;;;5069967;28;20052;-84
2023/03/31 05:41:47;;;;;;;0.47;0.47;;;9.40;99.90;;;;;;5060001;28;20031;-84
2023/03/31 05:44:12;;;;;;;0.40;0.40;;;9.40;99.90;;;;;;5082713;28;20126;-83
2023/03/31 05:46:38;;;;;;;0.50;0.50;;;9.40;99.90;;;;;;5086652;28;20036;-83
2023/03/31 05:49:05;;;;;;;4.75;3.92;;;9.30;99.90;;;;;;5094012;28;20055;-84
2023/03/31 05:51:30;;;;;;;0.40;0.40;;;9.40;99.90;;;;;;5067344;28;20458;-83
2023/03/31 05:53:56;;;;;;;0.47;0.47;;;9.40;99.90;;;;;;5080464;28;20086;-83
2023/03/31 05:56:22;;;;;;;0.45;0.45;;;9.40;99.90;;;;;;5070041;28;20056;-83
2023/03/31 05:58:48;;;;;;;0.52;0.52;;;9.40;99.90;;;;;;5092827;28;20137;-84
2023/03/31 06:01:20;;;;;;;0.40;0.40;;;9.40;99.90;;;;;;5085178;28;20083;-84
2023/03/31 06:03:46;;;;;;;1.08;1.08;;;9.40;99.90;;;;;;5091654;28;20043;-82
2023/03/31 06:06:15;;;;;;;;;;;9.40;99.90;;;;;;5088478;28;20044;-82
2023/03/31 06:08:45;;;;;;;1.45;1.35;;;9.40;99.90;;;;;;5074509;28;19928;-83
2023/03/31 06:11:13;;;;;;;0.40;0.40;;;9.40;99.90;;;;;;5055157;28;20048;-82
2023/03/31 06:13:40;;;;;;;0.40;0.40;;;9.40;99.90;;;;;;5049519;28;20040;-83
2023/03/31 06:16:06;;;;;;;0.40;0.40;;;9.40;99.90;;;;;;5049500;28;20083;-82
2023/03/31 06:18:34;;;;;;;0.32;0.32;;;9.40;99.90;;;;;;5060942;28;20485;-82
2023/03/31 06:21:00;;;;;;;0.30;0.30;;;9.40;99.90;;;;;;5065736;28;20063;-83
2023/03/31 06:23:26;;;;;;;0.55;0.55;;;9.40;99.90;;;;;;5064798;28;20482;-82
2023/03/31 06:25:52;;;;;;;0.50;0.50;;;9.50;99.90;;;;;;5066310;28;20040;-83
2023/03/31 06:28:19;;;;;;;0.40;0.40;;;9.50;99.90;;;;;;5048618;28;20093;-84
2023/03/31 06:30:45;;;;;;;0.40;0.40;;;9.50;99.90;;;;;;5066311;28;20046;-83
2023/03/31 06:33:12;;;;;;;0.43;0.43;;;9.50;99.90;;;;;;5064835;28;20542;-82
2023/03/31 06:35:39;;;;;;;0.63;0.50;;;9.40;99.90;;;;;;5064220;28;20036;-83
2023/03/31 06:38:05;;;;;;;0.50;0.50;;;9.50;99.90;;;;;;5060190;28;20048;-82
2023/03/31 06:40:31;;;;;;;0.40;0.40;;;9.50;99.90;;;;;;5051574;28;20543;-83
2023/03/31 06:42:57;;;;;;;0.40;0.40;;;9.50;99.90;;;;;;5066230;28;20044;-82
2023/03/31 06:45:22;;;;;;;0.40;0.40;;;9.50;99.90;;;;;;5050083;28;20052;-82
2023/03/31 06:47:49;;;;;;;0.30;0.30;;;9.50;99.90;;;;;;5034189;28;20039;-82
2023/03/31 06:50:15;;;;;;;0.30;0.30;;;9.50;99.90;;;;;;5071458;28;20055;-81
2023/03/31 06:52:41;;;;;;;0.30;0.30;;;9.50;99.90;;;;;;5064411;28;20046;-83
2023/03/31 06:55:08;;;;;;;0.40;0.40;;;9.60;99.90;;;;;;5049156;28;20036;-83
2023/03/31 06:57:34;;;;;;;0.45;0.45;;;9.60;99.90;;;;;;5052645;28;20040;-83
2023/03/31 07:00:00;;;;;;;0.35;0.35;;;9.60;99.90;;;;;;5047978;28;20047;-83
2023/03/31 07:02:25;;;;;;;0.40;0.40;;;9.60;99.90;;;;;;5049421;28;20036;-85
2023/03/31 07:04:54;;;;;;;0.40;0.40;;;9.70;99.90;;;;;;5032482;28;20044;-84
2023/03/31 07:07:20;;;;;;;0.30;0.30;;;9.70;99.90;;;;;;5045606;28;20441;-81
2023/03/31 07:09:45;;;;;;;0.50;0.50;;;9.70;99.90;;;;;;5067552;28;20077;-81
2023/03/31 07:12:11;;;;;;;0.32;0.32;;;9.70;99.90;;;;;;5066311;28;20076;-81
2023/03/31 07:14:37;;;;;;;0.30;0.30;;;9.70;99.90;;;;;;5082914;28;20035;-82
2023/03/31 07:17:02;;;;;;;0.30;0.30;;;9.70;99.90;;;;;;5068794;28;20491;-82
2023/03/31 07:19:28;;;;;;;0.40;0.40;;;9.70;99.90;;;;;;5065671;28;20039;-82
2023/03/31 07:21:55;;;;;;;0.40;0.40;;;9.70;99.90;;;;;;5049370;28;20530;-83
2023/03/31 07:24:21;;;;;;;0.28;0.28;;;9.70;99.90;;;;;;5080767;28;20055;-82
2023/03/31 07:26:47;;;;;;;0.30;0.30;;;9.70;99.90;;;;;;5067453;28;20443;-82
2023/03/31 07:29:13;;;;;;;0.30;0.30;;;9.70;99.90;;;;;;5068978;28;20055;-82
2023/03/31 07:31:39;;;;;;;0.40;0.40;;;9.70;99.90;;;;;;5084419;28;20449;-82
2023/03/31 07:34:05;;;;;;;0.35;0.35;;;9.70;99.90;;;;;;5083061;28;20129;-83
2023/03/31 07:36:31;;;;;;;0.32;0.32;;;9.70;99.90;;;;;;5088336;28;20081;-82
2023/03/31 07:38:57;;;;;;;0.40;0.40;;;9.70;99.90;;;;;;5082873;28;20565;-83
2023/03/31 07:41:23;;;;;;;;;;;9.80;99.90;;;;;;5084291;28;20182;-83
2023/03/31 07:43:49;;;;;;;0.57;0.57;;;9.80;99.90;;;;;;5081309;28;19984;-83
2023/03/31 07:46:22;;;;;;;0.40;0.40;;;9.80;99.90;;;;;;5086211;28;20497;-83
2023/03/31 07:48:48;;;;;;;0.30;0.30;;;9.90;99.90;;;;;;5081114;28;20404;-83
2023/03/31 07:51:16;;;;;;;0.30;0.30;;;9.90;99.90;;;;;;5088340;28;20040;-83
2023/03/31 07:53:43;;;;;;;0.45;0.45;;;9.90;99.90;;;;;;5086565;28;20040;-83
2023/03/31 07:56:08;;;;;;;;;;;10.00;99.90;;;;;;5084567;28;20042;-83
2023/03/31 07:58:34;;;;;;;0.38;0.38;;;10.00;99.90;;;;;;5083830;28;20293;-83
2023/03/31 08:01:00;;;;;;;0.32;0.32;;;10.00;99.90;;;;;;5062415;28;20055;-83
2023/03/31 08:03:26;;;;;;;;;;;10.00;99.90;;;;;;5081926;28;20611;-84
2023/03/31 08:05:52;;;;;;;0.30;0.30;;;10.00;99.90;;;;;;5047763;28;19926;-83
2023/03/31 08:08:19;;;;;;;0.30;0.30;;;10.00;99.90;;;;;;5090143;28;20518;-83
2023/03/31 08:10:44;;;;;;;;;;;10.10;99.90;;;;;;5096951;28;20382;-83
2023/03/31 08:13:10;;;;;;;0.43;0.43;;;10.10;99.90;;;;;;5088988;28;19926;-82
2023/03/31 08:15:35;;;;;;;0.30;0.30;;;10.10;99.90;;;;;;5091267;28;20557;-83
2023/03/31 08:18:03;;;;;;;0.30;0.30;;;10.00;99.90;;;;;;5073269;28;20492;-82
2023/03/31 08:20:29;;;;;;;0.73;0.73;;;10.10;99.90;;;;;;5087870;28;20094;-83
2023/03/31 08:22:54;;;;;;;0.40;0.40;;;10.00;99.90;;;;;;5086930;28;20079;-83
2023/03/31 08:25:20;;;;;;;0.40;0.40;;;9.90;99.90;;;;;;5089655;28;20051;-83
2023/03/31 08:27:49;;;;;;;0.40;0.40;;;9.90;99.90;;;;;;5095179;28;20059;-83
2023/03/31 08:30:17;;;;;;;0.30;0.30;;;10.00;99.90;;;;;;5096385;28;20094;-83
2023/03/31 08:32:43;;;;;;;0.38;0.38;;;10.00;99.90;;;;;;5096204;28;20047;-82
2023/03/31 08:35:10;;;;;;;0.30;0.30;;;10.00;99.90;;;;;;5090782;28;20512;-83
2023/03/31 08:37:36;;;;;;;0.40;0.40;;;10.00;99.90;;;;;;5087598;28;20044;-83
2023/03/31 08:40:04;;;;;;;0.40;0.40;;;10.00;99.90;;;;;;5089994;28;20044;-82
2023/03/31 08:42:36;;;;;;;0.30;0.30;;;10.00;99.90;;;;;;5067673;28;20048;-82
2023/03/31 08:45:14;;;;;;;0.43;0.43;;;10.10;99.90;;;;;;5070493;28;20083;-83
2023/03/31 08:47:41;;;;;;;0.40;0.40;;;10.00;99.90;;;;;;5081040;28;20062;-83
2023/03/31 08:50:14;;;;;;;0.40;0.40;;;10.00;99.90;;;;;;5070197;28;20454;-83
2023/03/31 08:52:49;;;;;;;0.43;0.43;;;9.90;99.90;;;;;;5093722;28;20039;-83
2023/03/31 08:55:35;;;;;;;0.30;0.30;;;10.00;99.90;;;;;;5093522;28;20449;-83
2023/03/31 08:58:11;;;;;;;0.40;0.40;;;10.00;99.90;;;;;;5091821;28;20119;-83
2023/03/31 09:00:55;;;;;;;0.40;0.40;;;10.10;99.90;;;;;;5098213;28;20316;-84
2023/03/31 09:03:44;;;;;;;0.45;0.45;;;10.10;99.90;;;;;;5093943;28;20039;-82
2023/03/31 09:06:24;;;;;;;0.30;0.30;;;10.10;99.90;;;;;;5095113;28;20043;-81
2023/03/31 09:08:55;;;;;;;0.22;0.22;;;10.20;99.90;;;;;;5098237;28;20377;-81
2023/03/31 09:11:33;;;;;;;0.35;0.35;;;10.20;99.90;;;;;;5100919;28;20435;-81
2023/03/31 09:14:19;;;;;;;0.43;0.43;;;10.20;99.90;;;;;;5098145;28;20052;-80
2023/03/31 09:17:10;;;;;;;0.32;0.32;;;10.30;99.90;;;;;;5093348;28;21340;-80
2023/03/31 09:19:47;;;;;;;0.30;0.30;;;10.30;99.90;;;;;;5097001;28;20127;-81
2023/03/31 09:22:22;;;;;;;0.47;0.47;;;10.30;99.90;;;;;;5090480;28;20126;-81
2023/03/31 09:25:10;;;;;;;0.43;0.43;;;10.40;99.90;;;;;;5092202;28;20086;-81
2023/03/31 09:27:40;;;;;;;0.30;0.30;;;10.40;99.90;;;;;;5089112;28;20054;-80
2023/03/31 09:30:26;;;;;;;0.47;0.47;;;10.50;99.90;;;;;;5080020;28;20093;-80
2023/03/31 09:33:01;;;;;;;0.40;0.40;;;10.50;99.90;;;;;;5092381;28;20373;-80
2023/03/31 09:35:27;;;;;;;0.30;0.30;;;10.50;99.90;;;;;;5080430;28;20077;-80
2023/03/31 09:37:53;;;;;;;0.20;0.20;;;10.50;99.90;;;;;;5075379;28;20117;-81
2023/03/31 09:40:26;;;;;;;0.38;0.38;;;10.50;99.90;;;;;;5096961;28;20101;-81
2023/03/31 09:43:02;;;;;;;0.47;0.47;;;10.50;99.90;;;;;;5092472;28;20039;-81
2023/03/31 09:45:29;;;;;;;0.50;0.50;;;10.60;99.90;;;;;;5091522;28;20067;-81
2023/03/31 09:48:01;;;;;;;0.30;0.30;;;10.70;99.90;;;;;;5080511;28;20429;-81
2023/03/31 09:50:28;;;;;;;0.30;0.30;;;10.70;99.90;;;;;;5076401;28;20044;-80
2023/03/31 09:53:03;;;;;;;0.45;0.45;;;10.80;99.90;;;;;;5096052;28;20393;-81
2023/03/31 09:55:42;;;;;;;2.15;1.85;;;10.80;99.90;;;;;;5095204;28;20355;-81
2023/03/31 09:58:14;;;;;;;0.38;0.38;;;10.90;99.90;;;;;;5071434;28;20083;-81
2023/03/31 10:00:41;;;;;;;0.38;0.38;;;11.00;99.90;;;;;;5099508;28;20144;-81
2023/03/31 10:03:12;;;;;;;0.55;0.55;;;11.10;99.90;;;;;;5092344;28;20039;-81
2023/03/31 10:05:50;;;;;;;0.30;0.30;;;11.20;99.90;;;;;;5094042;28;20048;-80
2023/03/31 10:08:16;;;;;;;0.30;0.30;;;11.30;99.90;;;;;;5074118;28;20043;-81
2023/03/31 10:10:54;;;;;;;0.43;0.43;;;11.50;99.90;;;;;;5095102;28;20052;-81
2023/03/31 10:13:24;;;;;;;0.43;0.43;;;11.60;99.90;;;;;;5097141;28;20036;-80
2023/03/31 10:16:00;;;;;;;0.38;0.38;;;11.70;99.90;;;;;;5092217;28;20381;-81
2023/03/31 10:18:40;;;;;;;0.30;0.30;;;11.90;99.90;;;;;;5079168;28;20492;-81
2023/03/31 10:21:19;;;;;;;0.30;0.30;;;12.00;99.90;;;;;;5078451;28;20071;-81
2023/03/31 10:23:49;;;;;;;0.85;0.30;;;12.10;99.90;;;;;;5090479;28;20046;-81
2023/03/31 10:26:26;;;;;;;1.65;0.55;;;12.20;99.90;;;;;;5073166;28;20481;-81
2023/03/31 10:28:54;;;;;;;0.45;0.45;;;12.10;99.90;;;;;;5074555;28;20112;-81
2023/03/31 10:31:33;;;;;;;0.40;0.40;;;12.20;99.90;;;;;;5099538;28;20039;-81
2023/03/31 10:34:08;;;;;;;0.22;0.22;;;12.30;99.90;;;;;;5097898;28;20446;-81
2023/03/31 10:36:34;;;;;;;0.52;0.50;;;12.30;99.90;;;;;;5092459;28;20494;-81
2023/03/31 10:39:03;;;;;;;;;;;12.30;99.90;;;;;;5090643;28;20153;-81
2023/03/31 10:41:30;;;;;;;0.30;0.30;;;12.20;99.90;;;;;;5072517;28;19965;-80
2023/03/31 10:43:59;;;;;;;;;;;12.00;99.90;;;;;;5069880;28;20047;-80
2023/03/31 10:46:48;;;;;;;0.22;0.22;;;11.80;99.90;;;;;;5090158;28;19924;-80
2023/03/31 10:49:24;;;;;;;0.30;0.30;;;11.60;99.90;;;;;;5087133;28;20420;-80
2023/03/31 10:51:56;;;;;;;0.30;0.30;;;11.40;99.90;;;;;;5091955;28;21409;-80
2023/03/31 10:54:22;;;;;;;0.40;0.40;;;11.30;99.90;;;;;;5078105;28;20043;-81
2023/03/31 10:56:55;;;;;;;0.50;0.50;;;11.30;99.90;;;;;;5085864;28;20122;-80
2023/03/31 10:59:26;;;;;;;0.40;0.40;;;11.50;99.90;;;;;;5087323;28;20055;-81
2023/03/31 11:02:22;;;;;;;0.40;0.40;;;11.70;99.90;;;;;;5081962;28;20056;-80
2023/03/31 11:05:05;;;;;;;0.30;0.30;;;11.90;99.90;;;;;;5068027;28;20044;-81
2023/03/31 11:07:31;;;;;;;0.30;0.30;;;12.10;99.90;;;;;;5085966;28;20529;-81
2023/03/31 11:10:16;;;;;;;0.30;0.30;;;12.20;99.90;;;;;;5085331;28;20056;-81
2023/03/31 11:12:59;;;;;;;0.28;0.28;;;12.30;99.90;;;;;;5061215;28;20108;-81
2023/03/31 11:15:44;;;;;;;0.40;0.40;;;12.20;99.90;;;;;;5080116;28;20063;-81
2023/03/31 11:18:33;;;;;;;0.30;0.30;;;12.30;99.90;;;;;;5072556;28;20038;-81
2023/03/31 11:21:21;;;;;;;1.08;0.98;;;12.40;99.90;;;;;;5080206;28;20135;-81
2023/03/31 11:23:46;;;;;;;1.40;1.38;;;12.60;99.90;;;;;;5084771;28;20047;-81
2023/03/31 11:26:26;;;;;;;0.40;0.40;;;12.70;99.90;;;;;;5087701;28;20127;-81
2023/03/31 11:29:15;;;;;;;0.45;0.45;;;12.90;99.90;;;;;;5081841;28;20043;-81
2023/03/31 11:32:05;;;;;;;0.25;0.25;;;13.00;99.90;;;;;;5069343;28;20051;-81
2023/03/31 11:34:49;;;;;;;0.95;0.95;;;13.10;99.90;;;;;;5074412;28;20046;-81
2023/03/31 11:37:34;;;;;;;0.22;0.22;;;13.20;99.90;;;;;;5082113;28;20067;-81
2023/03/31 11:40:21;;;;;;;0.22;0.22;;;13.40;99.90;;;;;;5088172;28;20043;-81
2023/03/31 11:42:55;;;;;;;0.10;0.10;;;13.70;99.90;;;;;;5069725;28;20495;-81
2023/03/31 11:45:51;;;;;;;0.20;0.20;;;13.70;99.90;;;;;;5067365;28;20036;-81
2023/03/31 11:48:24;;;;;;;0.30;0.30;;;13.90;99.90;;;;;;5069004;28;20702;-81
2023/03/31 11:50:51;;;;;;;0.25;0.25;;;14.20;99.90;;;;;;5085927;28;20031;-81
2023/03/31 11:53:19;;;;;;;0.20;0.20;;;14.30;99.90;;;;;;5066553;28;20511;-81
2023/03/31 11:55:50;;;;;;;0.10;0.10;;;14.30;99.90;;;;;;5081158;28;20040;-80
2023/03/31 11:58:17;;;;;;;0.20;0.20;;;14.40;99.90;;;;;;5083435;28;20120;-81
2023/03/31 12:00:54;;;;;;;0.20;0.20;;;14.40;99.90;;;;;;5089092;28;20089;-81
2023/03/31 12:03:51;;;;;;;0.50;0.50;;;14.40;99.90;;;;;;5069253;28;20504;-81
2023/03/31 12:06:21;;;;;;;0.20;0.20;;;14.50;99.90;;;;;;5093734;28;20056;-81
2023/03/31 12:08:56;;;;;;;0.30;0.30;;;14.60;99.90;;;;;;5098912;28;20055;-81
2023/03/31 12:11:38;;;;;;;0.20;0.20;;;14.40;99.90;;;;;;5089996;28;20051;-81
2023/03/31 12:14:24;;;;;;;0.55;0.50;;;14.10;99.90;;;;;;5081497;28;20544;-81
2023/03/31 12:17:08;;;;;;;0.22;0.22;;;13.80;99.90;;;;;;5085288;28;20046;-81
2023/03/31 12:19:47;;;;;;;0.60;0.60;;;13.50;99.90;;;;;;5096794;28;20079;-80
2023/03/31 12:22:37;;;;;;;0.20;0.20;;;13.30;99.90;;;;;;5090322;28;20046;-81
2023/03/31 12:25:04;;;;;;;0.30;0.30;;;13.10;99.90;;;;;;5102159;28;20119;-81
2023/03/31 12:27:43;;;;;;;0.40;0.40;;;13.00;99.90;;;;;;5074406;28;20044;-81
2023/03/31 12:30:36;;;;;;;0.30;0.30;;;12.90;99.90;;;;;;5092330;28;20044;-80
2023/03/31 12:33:08;;;;;;;0.30;0.30;;;12.80;99.90;;;;;;5099680;28;20039;-80
2023/03/31 12:35:53;;;;;;;0.20;0.20;;;12.60;99.90;;;;;;5099718;28;20051;-80
2023/03/31 12:38:29;;;;;;;0.30;0.30;;;12.40;99.90;;;;;;5086993;28;20544;-80
2023/03/31 12:41:01;;;;;;;0.20;0.20;;;12.30;99.90;;;;;;5098100;28;20039;-80
2023/03/31 12:43:51;;;;;;;0.30;0.30;;;12.20;99.90;;;;;;5088112;28;20072;-80
2023/03/31 12:46:49;;;;;;;0.30;0.30;;;12.20;99.90;;;;;;5094398;28;20083;-80
2023/03/31 12:49:52;;;;;;;0.40;0.40;;;12.10;99.90;;;;;;5094857;28;20095;-80
2023/03/31 12:52:32;;;;;;;0.30;0.30;;;12.20;99.90;;;;;;5072802;28;20388;-80
2023/03/31 12:55:08;;;;;;;0.40;0.40;;;12.40;99.90;;;;;;5076098;28;20123;-81
2023/03/31 12:57:34;;;;;;;0.30;0.30;;;12.60;99.90;;;;;;5078039;28;20509;-80
2023/03/31 13:00:16;;;;;;;;;;;13.00;99.90;;;;;;5068212;28;20039;-81
2023/03/31 13:02:42;;;;;;;0.63;0.63;;;13.40;99.90;;;;;;5095521;28;20069;-81
2023/03/31 13:05:26;;;;;;;;;;;13.90;99.90;;;;;;5095115;28;20848;-80
2023/03/31 13:07:52;;;;;;;0.32;0.32;;;14.10;99.90;;;;;;5079910;28;19999;-80
2023/03/31 13:10:17;;;;;;;0.90;0.90;;;14.30;99.90;;;;;;5082704;27;20119;-81
2023/03/31 13:13:02;;;;;;;0.20;0.20;;;14.20;99.90;;;;;;5091176;28;20552;-80
2023/03/31 13:15:29;;;;;;;0.52;0.52;;;14.10;99.90;;;;;;5079747;27;20546;-81
2023/03/31 13:18:04;;;;;;;0.40;0.40;;;14.00;99.90;;;;;;5070974;27;20096;-80
2023/03/31 13:20:38;;;;;;;0.40;0.40;;;13.90;99.90;;;;;;5081106;28;20059;-80
2023/03/31 13:23:21;;;;;;;0.20;0.20;;;13.90;99.90;;;;;;5085536;27;20046;-80